Hope, Michigan
Current Conditions -  °F | °C
As of 6:12 AM on Thursday 23 Oct 2014 (Local Time) from KIKW Reporting Station
Haze Haze  
Wind Chill: -3°   Ceiling: 100
Heat Index: -3°   Visibility: 4mi
Dew Point: -3°   Wind: 0mph
Humidity: 100%   Direction: NA
Pressure: 30.26"   Gusts: NA
Location:  43.76°N, 84.34°W
Report Text: KIKW 231012Z AUTO 00000KT 4SM BR OVC001 M03/M03 A3026 RMK AO2 T10261026
Loading
Personal Weather Stations






























Interactive Weather Map
Tropical Storm Tracking
New forecast layout! Learn more

10-Day Weather Forecast

Advertisements
Track Severe Weather on mobile